createdAt,value
2023-08-07T00:01:36.936Z,9.75
2023-08-07T00:04:08.289Z,10.48
2023-08-07T00:06:39.423Z,11.18
2023-08-07T00:09:10.459Z,11.88
2023-08-07T00:11:41.392Z,8.75
2023-08-07T00:14:12.235Z,9.45
2023-08-07T00:16:44.029Z,8.57
2023-08-07T00:19:15.404Z,9.80
2023-08-07T00:24:16.936Z,8.02
2023-08-07T00:26:47.470Z,8.30
2023-08-07T00:29:17.752Z,7.97
2023-08-07T00:31:48.396Z,10.23
2023-08-07T00:34:19.377Z,8.48
2023-08-07T00:36:49.697Z,8.15
2023-08-07T00:39:20.747Z,8.40
2023-08-07T00:44:22.709Z,6.93
2023-08-07T00:46:54.881Z,7.05
2023-08-07T00:49:25.897Z,8.50
2023-08-07T00:51:57.965Z,8.30
2023-08-07T00:54:29.578Z,7.70
2023-08-07T00:57:14.439Z,6.40
2023-08-07T00:59:47.059Z,7.35
2023-08-07T01:02:18.095Z,7.03
2023-08-07T01:04:50.650Z,8.80
2023-08-07T01:07:21.647Z,7.50
2023-08-07T01:09:52.750Z,6.00
2023-08-07T01:12:31.053Z,5.70
2023-08-07T01:15:17.176Z,7.22
2023-08-07T01:17:48.997Z,7.00
2023-08-07T01:20:20.853Z,6.22
2023-08-07T01:22:51.828Z,5.82
2023-08-07T01:25:22.808Z,5.10
2023-08-07T01:28:30.091Z,5.72
2023-08-07T01:31:07.036Z,4.95
2023-08-07T01:34:00.697Z,6.20
2023-08-07T01:36:32.612Z,5.25
2023-08-07T01:39:06.462Z,5.57
2023-08-07T01:41:38.898Z,5.43
2023-08-07T01:44:09.245Z,5.78
2023-08-07T01:46:39.956Z,5.55
2023-08-07T01:49:14.800Z,4.75
2023-08-07T01:51:46.926Z,5.10
2023-08-07T01:54:20.411Z,4.00
2023-08-07T01:56:50.790Z,4.95
2023-08-07T01:59:22.475Z,4.50
2023-08-07T02:01:56.184Z,5.57
2023-08-07T02:04:27.331Z,3.25
2023-08-07T02:07:01.607Z,4.90
2023-08-07T02:09:35.166Z,4.47
2023-08-07T02:12:06.849Z,3.85
2023-08-07T02:14:40.705Z,4.03
2023-08-07T02:17:12.958Z,5.32
2023-08-07T02:19:43.122Z,3.83
2023-08-07T02:22:18.529Z,5.82
2023-08-07T02:24:49.162Z,4.13
2023-08-07T02:27:19.598Z,4.78
2023-08-07T02:29:50.396Z,3.50
2023-08-07T02:32:20.596Z,4.68
2023-08-07T02:34:50.727Z,5.03
2023-08-07T02:37:21.074Z,4.70
2023-08-07T02:39:51.347Z,4.18
2023-08-07T02:42:22.062Z,3.92
2023-08-07T02:44:52.461Z,3.92
2023-08-07T02:47:22.624Z,5.43
2023-08-07T02:49:52.791Z,4.50
2023-08-07T02:52:22.742Z,4.15
2023-08-07T02:54:53.635Z,3.80
2023-08-07T02:57:23.711Z,4.93
2023-08-07T02:59:53.669Z,3.55
2023-08-07T03:02:23.541Z,4.75
2023-08-07T03:04:53.454Z,4.78
2023-08-07T03:07:23.645Z,4.85
2023-08-07T03:09:53.677Z,5.10
2023-08-07T03:12:23.632Z,5.35
2023-08-07T03:14:53.720Z,4.75
2023-08-07T03:17:23.625Z,5.03
2023-08-07T03:19:53.733Z,5.28
2023-08-07T03:22:24.040Z,5.50
2023-08-07T03:24:54.127Z,6.55
2023-08-07T03:27:24.375Z,5.90
2023-08-07T03:29:54.804Z,4.85
2023-08-07T03:32:29.336Z,7.13
2023-08-07T03:35:00.035Z,6.18
2023-08-07T03:37:30.679Z,5.40
2023-08-07T03:40:00.722Z,5.82
2023-08-07T03:42:30.794Z,6.50
2023-08-07T03:45:01.084Z,5.18
2023-08-07T03:47:31.249Z,6.25
2023-08-07T03:50:01.360Z,5.57
2023-08-07T03:52:32.281Z,4.88
2023-08-07T03:55:03.418Z,5.65
2023-08-07T03:57:33.560Z,6.25
2023-08-07T04:00:03.861Z,5.53
2023-08-07T04:02:43.262Z,6.60
2023-08-07T04:05:16.102Z,4.72
2023-08-07T04:07:46.222Z,5.75
2023-08-07T04:10:16.331Z,5.03
2023-08-07T04:12:46.461Z,4.30
2023-08-07T04:15:16.837Z,3.83
2023-08-07T04:17:47.001Z,4.53
2023-08-07T04:20:17.166Z,4.25
2023-08-07T04:22:47.714Z,5.43
2023-08-07T04:25:17.810Z,4.93
2023-08-07T04:27:47.676Z,4.13
2023-08-07T04:30:17.640Z,4.00
2023-08-07T04:32:47.602Z,4.63
2023-08-07T04:35:17.578Z,3.85
2023-08-07T04:37:47.488Z,4.63
2023-08-07T04:40:17.688Z,4.90
2023-08-07T04:42:47.861Z,3.63
2023-08-07T04:45:18.060Z,4.05
2023-08-07T04:47:48.301Z,4.60
2023-08-07T04:50:18.488Z,4.40
2023-08-07T04:52:48.716Z,4.03
2023-08-07T04:55:18.906Z,5.07
2023-08-07T04:58:08.095Z,4.38
2023-08-07T05:00:39.084Z,3.55
2023-08-07T05:03:09.496Z,3.33
2023-08-07T05:05:39.752Z,4.05
2023-08-07T05:08:09.648Z,4.40
2023-08-07T05:10:39.738Z,3.50
2023-08-07T05:13:09.674Z,3.38
2023-08-07T05:15:39.832Z,3.80
2023-08-07T05:18:09.987Z,4.18
2023-08-07T05:20:40.070Z,3.13
2023-08-07T05:23:10.907Z,3.38
2023-08-07T05:25:41.123Z,3.35
2023-08-07T05:28:11.260Z,4.18
2023-08-07T05:30:41.595Z,3.88
2023-08-07T05:33:12.159Z,3.17
2023-08-07T05:35:42.266Z,3.72
2023-08-07T05:38:12.374Z,3.33
2023-08-07T05:40:42.950Z,3.67
2023-08-07T05:43:14.932Z,3.28
2023-08-07T05:45:47.156Z,3.13
2023-08-07T05:48:18.513Z,2.78
2023-08-07T05:53:17.976Z,3.85
2023-08-07T05:55:51.085Z,3.50
2023-08-07T05:58:21.306Z,3.55
2023-08-07T06:00:51.498Z,3.92
2023-08-07T06:03:21.582Z,3.55
2023-08-07T06:05:52.229Z,3.95
2023-08-07T06:08:22.553Z,3.80
2023-08-07T06:10:52.704Z,3.45
2023-08-07T06:13:34.422Z,3.92
2023-08-07T06:16:06.856Z,4.43
2023-08-07T06:18:37.164Z,3.95
2023-08-07T06:21:09.204Z,4.13
2023-08-07T06:23:40.882Z,3.85
2023-08-07T06:26:11.261Z,3.20
2023-08-07T06:28:41.781Z,3.65
2023-08-07T06:31:13.938Z,3.65
2023-08-07T06:33:44.641Z,3.40
2023-08-07T06:36:14.701Z,3.50
2023-08-07T06:38:44.597Z,3.97
2023-08-07T06:41:15.084Z,3.70
2023-08-07T06:43:45.213Z,3.97
2023-08-07T06:46:15.409Z,4.10
2023-08-07T06:48:45.513Z,3.92
2023-08-07T06:51:16.121Z,3.70
2023-08-07T06:53:46.185Z,4.07
2023-08-07T06:56:16.276Z,3.53
2023-08-07T06:58:46.652Z,3.92
2023-08-07T07:01:16.800Z,3.65
2023-08-07T07:03:49.126Z,4.53
2023-08-07T07:06:19.241Z,3.55
2023-08-07T07:08:49.479Z,3.22
2023-08-07T07:11:21.740Z,3.88
2023-08-07T07:13:53.664Z,4.47
2023-08-07T07:16:24.376Z,4.13
2023-08-07T07:18:54.965Z,3.90
2023-08-07T07:21:25.047Z,3.78
2023-08-07T07:23:55.246Z,4.35
2023-08-07T07:26:25.703Z,3.70
2023-08-07T07:28:55.899Z,4.05
2023-08-07T07:31:26.232Z,4.25
2023-08-07T07:33:57.235Z,4.78
2023-08-07T07:36:27.465Z,3.92
2023-08-07T07:38:57.548Z,4.00
2023-08-07T07:41:27.699Z,3.92
2023-08-07T07:43:59.324Z,4.55
2023-08-07T07:46:29.568Z,3.75
2023-08-07T07:48:59.947Z,4.50
2023-08-07T07:51:31.555Z,4.20
2023-08-07T07:56:38.731Z,4.72
2023-08-07T07:59:09.553Z,4.50
2023-08-07T08:01:40.277Z,4.30
2023-08-07T08:04:12.342Z,3.88
2023-08-07T08:06:43.531Z,4.57
2023-08-07T08:09:13.953Z,4.25
2023-08-07T08:11:44.477Z,4.97
2023-08-07T08:14:14.781Z,4.50
2023-08-07T08:16:45.014Z,4.30
2023-08-07T08:19:16.094Z,3.63
2023-08-07T08:21:46.312Z,3.90
2023-08-07T08:24:16.447Z,4.03
2023-08-07T08:26:46.984Z,4.32
2023-08-07T08:29:19.878Z,3.97
2023-08-07T08:31:50.234Z,4.75
2023-08-07T08:34:20.330Z,4.47
2023-08-07T08:36:50.908Z,4.57
2023-08-07T08:39:21.320Z,4.53
2023-08-07T08:41:52.536Z,5.22
2023-08-07T08:44:24.830Z,4.85
2023-08-07T08:46:58.499Z,5.47
2023-08-07T08:49:36.796Z,4.53
2023-08-07T08:52:07.820Z,5.13
2023-08-07T08:54:38.366Z,5.80
2023-08-07T08:57:10.091Z,5.22
2023-08-07T08:59:41.150Z,5.25
2023-08-07T09:02:12.837Z,4.43
2023-08-07T09:04:44.435Z,5.00
2023-08-07T09:07:18.893Z,5.03
2023-08-07T09:09:53.050Z,5.20
2023-08-07T09:12:26.025Z,5.85
2023-08-07T09:14:59.908Z,6.35
2023-08-07T09:17:32.002Z,5.60
2023-08-07T09:20:02.954Z,3.40
2023-08-07T09:22:33.168Z,4.05
2023-08-07T09:25:03.508Z,4.32
2023-08-07T09:27:34.465Z,4.65
2023-08-07T09:30:05.335Z,3.50
2023-08-07T09:32:36.318Z,4.35
2023-08-07T09:35:07.914Z,4.18
2023-08-07T09:37:40.777Z,4.40
2023-08-07T09:40:14.155Z,4.07
2023-08-07T09:42:45.118Z,3.85
2023-08-07T09:45:32.493Z,3.53
2023-08-07T09:48:03.935Z,4.55
2023-08-07T09:50:34.398Z,3.47
2023-08-07T09:53:04.944Z,4.03
2023-08-07T09:55:35.696Z,3.97
2023-08-07T09:58:05.888Z,4.80
2023-08-07T10:00:39.710Z,5.05
2023-08-07T10:03:10.391Z,4.47
2023-08-07T10:05:40.598Z,4.15
2023-08-07T10:08:11.577Z,5.07
2023-08-07T10:10:42.874Z,5.95
2023-08-07T10:13:17.376Z,4.80
2023-08-07T10:15:50.103Z,4.75
2023-08-07T10:18:20.296Z,5.72
2023-08-07T10:20:50.737Z,5.03
2023-08-07T10:23:21.105Z,5.05
2023-08-07T10:25:53.055Z,5.75
2023-08-07T10:28:27.418Z,5.68
2023-08-07T10:30:59.845Z,6.20
2023-08-07T10:33:30.934Z,4.53
2023-08-07T10:36:05.972Z,6.13
2023-08-07T10:38:39.516Z,4.30
2023-08-07T10:41:10.941Z,6.38
2023-08-07T10:43:46.249Z,7.38
2023-08-07T10:46:19.698Z,5.97
2023-08-07T10:49:01.788Z,7.45
2023-08-07T10:51:35.613Z,4.88
2023-08-07T10:54:06.366Z,5.47
2023-08-07T10:56:39.661Z,5.30
2023-08-07T10:59:14.357Z,4.82
2023-08-07T11:01:45.881Z,5.88
2023-08-07T11:04:17.618Z,5.57
2023-08-07T11:06:51.074Z,5.07
2023-08-07T11:09:21.235Z,6.13
2023-08-07T11:11:52.139Z,5.35
2023-08-07T11:14:22.908Z,6.13
2023-08-07T11:16:53.030Z,4.70
2023-08-07T11:19:23.185Z,5.18
2023-08-07T11:21:53.792Z,4.82
2023-08-07T11:24:24.586Z,5.78
2023-08-07T11:26:55.360Z,4.32
2023-08-07T11:29:27.526Z,5.28
2023-08-07T11:31:57.684Z,5.93
2023-08-07T11:34:27.998Z,6.05
2023-08-07T11:37:00.018Z,5.40
2023-08-07T11:39:30.155Z,4.70
2023-08-07T11:42:00.311Z,3.00
2023-08-07T11:44:30.608Z,4.47
2023-08-07T11:47:00.753Z,3.50
2023-08-07T11:49:30.881Z,3.92
2023-08-07T11:52:01.947Z,3.65
2023-08-07T11:54:32.212Z,3.72
2023-08-07T11:57:02.557Z,3.58
2023-08-07T11:59:32.677Z,11.27
2023-08-07T12:02:14.017Z,3.45
2023-08-07T12:04:44.335Z,3.03
2023-08-07T12:07:15.947Z,3.35
2023-08-07T12:09:46.455Z,3.60
2023-08-07T12:12:16.956Z,3.78
2023-08-07T12:14:47.120Z,3.80
2023-08-07T12:17:19.158Z,3.35
2023-08-07T12:19:49.342Z,4.07
2023-08-07T12:22:23.571Z,3.28
2023-08-07T12:24:53.882Z,3.50
2023-08-07T12:27:24.046Z,3.22
2023-08-07T12:29:54.436Z,2.90
2023-08-07T12:32:24.796Z,2.65
2023-08-07T12:37:28.952Z,3.30
2023-08-07T12:40:36.156Z,3.20
2023-08-07T12:42:50.671Z,2.58
2023-08-07T12:45:52.395Z,2.80
2023-08-07T12:48:12.421Z,2.72
2023-08-07T12:50:43.207Z,2.13
2023-08-07T12:53:13.465Z,2.58
2023-08-07T12:55:43.684Z,3.25
2023-08-07T12:58:13.940Z,2.53
2023-08-07T13:00:44.963Z,3.83
2023-08-07T13:03:15.104Z,2.70
2023-08-07T13:05:45.283Z,3.58
2023-08-07T13:08:15.546Z,3.53
2023-08-07T13:10:47.942Z,3.30
2023-08-07T13:13:20.081Z,4.25
2023-08-07T13:15:50.231Z,3.17
2023-08-07T13:18:20.323Z,2.85
2023-08-07T13:20:50.473Z,3.78
2023-08-07T13:23:20.618Z,3.67
2023-08-07T13:25:50.865Z,3.20
2023-08-07T13:28:21.056Z,3.33
2023-08-07T13:30:52.758Z,2.67
2023-08-07T13:33:23.190Z,2.80
2023-08-07T13:35:53.376Z,2.97
2023-08-07T13:38:23.537Z,4.20
2023-08-07T13:40:54.969Z,4.38
2023-08-07T13:43:25.078Z,4.30
2023-08-07T13:45:55.279Z,1.60
2023-08-07T13:48:28.805Z,3.25
2023-08-07T13:50:59.113Z,4.38
2023-08-07T13:53:31.345Z,4.63
2023-08-07T13:56:01.483Z,5.30
2023-08-07T13:58:32.903Z,4.50
2023-08-07T14:01:03.172Z,4.35
2023-08-07T14:03:34.171Z,4.57
2023-08-07T14:06:04.625Z,6.25
2023-08-07T14:08:36.909Z,6.43
2023-08-07T14:11:07.829Z,4.95
2023-08-07T14:13:37.984Z,5.40
2023-08-07T14:16:08.168Z,5.10
2023-08-07T14:18:38.252Z,5.85
2023-08-07T14:21:08.416Z,5.40
2023-08-07T14:23:38.604Z,4.63
2023-08-07T14:26:08.774Z,4.97
2023-08-07T14:28:38.717Z,5.53
2023-08-07T14:31:12.490Z,5.32
2023-08-07T14:33:42.707Z,4.13
2023-08-07T14:36:12.752Z,4.53
2023-08-07T14:38:43.082Z,4.10
2023-08-07T14:41:13.594Z,4.47
2023-08-07T14:43:43.789Z,5.57
2023-08-07T14:46:13.787Z,5.60
2023-08-07T14:48:43.772Z,5.45
2023-08-07T14:51:14.188Z,6.70
2023-08-07T14:53:44.492Z,5.47
2023-08-07T14:56:15.884Z,7.13
2023-08-07T14:58:46.282Z,5.35
2023-08-07T15:01:16.694Z,6.15
2023-08-07T15:03:46.923Z,6.28
2023-08-07T15:06:17.961Z,5.68
2023-08-07T15:08:47.937Z,6.03
2023-08-07T15:11:18.817Z,4.63
2023-08-07T15:13:49.190Z,6.78
2023-08-07T15:16:19.521Z,5.93
2023-08-07T15:18:49.685Z,4.82
2023-08-07T15:21:20.625Z,4.68
2023-08-07T15:23:51.206Z,5.43
2023-08-07T15:26:22.957Z,6.68
2023-08-07T15:28:53.261Z,6.05
2023-08-07T15:31:23.863Z,5.60
2023-08-07T15:33:54.918Z,5.88
2023-08-07T15:36:25.133Z,6.10
2023-08-07T15:38:55.221Z,6.03
2023-08-07T15:41:25.478Z,5.20
2023-08-07T15:43:55.945Z,4.80
2023-08-07T15:46:26.271Z,4.13
2023-08-07T15:48:57.858Z,3.70
2023-08-07T15:53:59.877Z,4.05
2023-08-07T15:56:30.058Z,3.72
2023-08-07T15:59:00.131Z,5.10
2023-08-07T16:01:30.473Z,4.60
2023-08-07T16:04:00.779Z,4.57
2023-08-07T16:06:30.776Z,4.03
2023-08-07T16:09:00.617Z,5.10
2023-08-07T16:11:30.918Z,4.20
2023-08-07T16:14:00.974Z,3.78
2023-08-07T16:16:31.621Z,4.55
2023-08-07T16:19:01.494Z,4.32
2023-08-07T16:21:31.405Z,5.00
2023-08-07T16:24:01.501Z,4.07
2023-08-07T16:26:31.654Z,2.45
2023-08-07T16:29:01.642Z,2.67
2023-08-07T16:31:32.305Z,1.83
2023-08-07T16:34:02.494Z,1.75
2023-08-07T16:36:32.715Z,2.03
2023-08-07T16:39:02.909Z,1.60
2023-08-07T16:41:33.141Z,1.58
2023-08-07T16:44:03.011Z,2.80
2023-08-07T16:46:33.773Z,2.38
2023-08-07T16:49:04.029Z,2.22
2023-08-07T16:51:34.851Z,1.83
2023-08-07T16:54:05.500Z,2.13
2023-08-07T16:56:35.970Z,1.70
2023-08-07T16:59:06.114Z,1.95
2023-08-07T17:01:36.925Z,2.20
2023-08-07T17:04:07.118Z,1.90
2023-08-07T17:06:37.477Z,1.48
2023-08-07T17:09:07.861Z,1.92
2023-08-07T17:11:38.060Z,2.20
2023-08-07T17:14:07.980Z,2.92
2023-08-07T17:16:38.161Z,1.73
2023-08-07T17:19:08.267Z,3.38
2023-08-07T17:21:38.406Z,4.03
2023-08-07T17:24:09.069Z,3.70
2023-08-07T17:26:39.187Z,2.22
2023-08-07T17:29:09.168Z,3.67
2023-08-07T17:31:39.737Z,4.97
2023-08-07T17:34:09.858Z,4.63
2023-08-07T17:36:40.047Z,3.30
2023-08-07T17:39:10.280Z,4.13
2023-08-07T17:41:40.487Z,5.40
2023-08-07T17:44:10.614Z,5.45
2023-08-07T17:46:40.873Z,3.95
2023-08-07T17:49:11.185Z,3.20
2023-08-07T17:51:41.201Z,5.20
2023-08-07T17:54:11.359Z,4.22
2023-08-07T17:56:41.449Z,3.97
2023-08-07T17:59:11.608Z,4.68
2023-08-07T18:01:41.631Z,4.95
2023-08-07T18:04:11.584Z,5.00
2023-08-07T18:06:41.596Z,4.65
2023-08-07T18:09:11.798Z,5.78
2023-08-07T18:11:42.188Z,5.10
2023-08-07T18:14:12.287Z,3.45
2023-08-07T18:16:42.446Z,3.15
2023-08-07T18:19:12.780Z,2.90
2023-08-07T18:21:42.991Z,2.30
2023-08-07T18:24:13.465Z,2.75
2023-08-07T18:26:44.691Z,2.45
2023-08-07T18:29:15.122Z,2.90
2023-08-07T18:31:45.710Z,3.63
2023-08-07T18:34:15.777Z,2.92
2023-08-07T18:36:46.496Z,2.70
2023-08-07T18:39:19.467Z,3.83
2023-08-07T18:41:49.783Z,3.08
2023-08-07T18:44:20.174Z,4.05
2023-08-07T18:46:51.078Z,3.97
2023-08-07T18:49:23.135Z,3.95
2023-08-07T18:51:53.294Z,3.53
2023-08-07T18:54:23.469Z,3.45
2023-08-07T18:56:54.823Z,2.83
2023-08-07T18:59:25.045Z,2.60
2023-08-07T19:01:55.291Z,3.50
2023-08-07T19:04:25.557Z,3.38
2023-08-07T19:06:57.263Z,3.05
2023-08-07T19:09:27.893Z,3.30
2023-08-07T19:11:58.173Z,2.35
2023-08-07T19:14:28.305Z,3.33
2023-08-07T19:16:58.737Z,3.58
2023-08-07T19:19:28.984Z,3.05
2023-08-07T19:21:59.560Z,4.90
2023-08-07T19:24:29.680Z,3.40
2023-08-07T19:27:00.210Z,3.85
2023-08-07T19:29:30.453Z,4.05
2023-08-07T19:32:01.039Z,5.18
2023-08-07T19:34:31.195Z,4.57
2023-08-07T19:37:01.552Z,4.07
2023-08-07T19:39:31.942Z,3.58
2023-08-07T19:42:02.963Z,2.33
2023-08-07T19:44:33.215Z,2.28
2023-08-07T19:47:03.368Z,2.80
2023-08-07T19:49:34.364Z,2.53
2023-08-07T19:52:04.778Z,2.13
2023-08-07T19:54:34.887Z,3.45
2023-08-07T19:57:05.164Z,2.70
2023-08-07T19:59:35.062Z,3.13
2023-08-07T20:02:05.636Z,3.40
2023-08-07T20:04:36.045Z,2.42
2023-08-07T20:07:06.935Z,3.55
2023-08-07T20:09:40.154Z,4.00
2023-08-07T20:12:11.171Z,4.47
2023-08-07T20:14:41.392Z,5.40
2023-08-07T20:17:11.627Z,4.07
2023-08-07T20:19:41.742Z,5.28
2023-08-07T20:22:12.025Z,4.47
2023-08-07T20:24:42.133Z,4.65
2023-08-07T20:27:12.234Z,4.10
2023-08-07T20:29:42.441Z,3.53
2023-08-07T20:32:12.860Z,3.08
2023-08-07T20:34:43.920Z,2.88
2023-08-07T20:37:14.052Z,4.45
2023-08-07T20:39:44.092Z,3.85
2023-08-07T20:42:14.510Z,3.55
2023-08-07T20:44:44.627Z,3.50
2023-08-07T20:47:14.780Z,3.10
2023-08-07T20:49:44.666Z,3.60
2023-08-07T20:52:14.800Z,2.08
2023-08-07T20:54:44.808Z,2.75
2023-08-07T20:57:14.947Z,3.10
2023-08-07T20:59:45.069Z,2.85
2023-08-07T21:02:15.246Z,4.80
2023-08-07T21:04:45.373Z,5.10
2023-08-07T21:07:15.524Z,4.90
2023-08-07T21:09:45.591Z,4.38
2023-08-07T21:12:15.725Z,5.00
2023-08-07T21:14:47.185Z,3.72
2023-08-07T21:17:17.281Z,4.55
2023-08-07T21:19:49.620Z,5.43
2023-08-07T21:22:19.720Z,5.88
2023-08-07T21:24:50.065Z,4.75
2023-08-07T21:27:20.298Z,4.53
2023-08-07T21:29:50.477Z,5.10
2023-08-07T21:32:20.897Z,5.15
2023-08-07T21:34:51.051Z,3.40
2023-08-07T21:37:20.985Z,4.53
2023-08-07T21:39:51.040Z,4.82
2023-08-07T21:42:21.159Z,4.38
2023-08-07T21:44:51.455Z,4.63
2023-08-07T21:47:21.652Z,4.45
2023-08-07T21:49:51.816Z,5.88
2023-08-07T21:52:22.783Z,6.57
2023-08-07T21:54:52.800Z,4.88
2023-08-07T21:57:22.720Z,5.95
2023-08-07T21:59:52.964Z,5.15
2023-08-07T22:02:23.121Z,5.13
2023-08-07T22:04:53.332Z,4.00
2023-08-07T22:07:23.479Z,4.68
2023-08-07T22:09:53.522Z,5.60
2023-08-07T22:12:23.634Z,4.47
2023-08-07T22:14:53.903Z,4.68
2023-08-07T22:17:24.209Z,5.13
2023-08-07T22:20:03.279Z,4.63
2023-08-07T22:22:36.178Z,4.53
2023-08-07T22:25:08.023Z,4.07
2023-08-07T22:27:38.153Z,4.07
2023-08-07T22:30:09.975Z,5.50
2023-08-07T22:32:41.597Z,4.32
2023-08-07T22:37:41.490Z,3.88
2023-08-07T22:40:11.905Z,4.45
2023-08-07T22:42:42.485Z,4.65
2023-08-07T22:45:12.683Z,4.43
2023-08-07T22:47:42.801Z,4.72
2023-08-07T22:50:12.923Z,4.68
2023-08-07T22:52:43.200Z,4.63
2023-08-07T22:55:13.659Z,4.65
2023-08-07T22:57:43.844Z,4.55
2023-08-07T23:00:14.799Z,4.68
2023-08-07T23:02:45.220Z,4.90
2023-08-07T23:05:15.594Z,4.60
2023-08-07T23:07:49.336Z,3.65
2023-08-07T23:10:20.410Z,3.95
2023-08-07T23:12:50.935Z,3.10
2023-08-07T23:15:22.131Z,4.20
2023-08-07T23:17:52.470Z,4.22
2023-08-07T23:20:23.070Z,5.00
2023-08-07T23:22:54.245Z,4.30
2023-08-07T23:25:25.221Z,4.00
2023-08-07T23:27:56.456Z,4.10
2023-08-07T23:30:27.496Z,4.40
2023-08-07T23:32:58.420Z,3.33
2023-08-07T23:35:29.910Z,4.25
2023-08-07T23:40:31.379Z,4.28
2023-08-07T23:43:02.148Z,3.50
2023-08-07T23:45:32.747Z,4.07
2023-08-07T23:48:04.023Z,4.05
2023-08-07T23:50:34.628Z,3.88
2023-08-07T23:53:05.883Z,3.63
2023-08-07T23:55:37.380Z,5.03
2023-08-07T23:58:09.659Z,4.13
